Time;durP1;ratioP1;P1;durP2;ratioP2;P2;SDS_P1;SDS_P2;PMS_P1;PMS_P2;Temp;Humidity;BMP_temperature;BMP_pressure;BME280_temperature;BME280_humidity;BME280_pressure;Samples;Min_cycle;Max_cycle;Signal;HPM_P1;HPM_P2
2023/07/13 00:00:24;;;;;;;4.13;2.05;;;19.10;90.40;;;;;;5054951;28;20021;-85
2023/07/13 00:02:53;;;;;;;4.35;1.38;;;19.10;90.40;;;;;;5054956;28;20074;-86
2023/07/13 00:05:23;;;;;;;5.72;1.80;;;19.10;90.40;;;;;;5037131;28;20060;-86
2023/07/13 00:07:50;;;;;;;5.70;1.98;;;19.10;90.40;;;;;;5054872;28;20092;-86
2023/07/13 00:10:19;;;;;;;8.48;1.60;;;19.00;90.40;;;;;;5037212;28;20080;-86
2023/07/13 00:12:45;;;;;;;3.03;1.40;;;19.00;90.30;;;;;;5036891;28;20021;-86
2023/07/13 00:15:22;;;;;;;4.93;1.67;;;19.00;90.30;;;;;;5037273;28;20027;-86
2023/07/13 00:17:55;;;;;;;3.40;1.33;;;19.00;90.30;;;;;;5037060;28;20091;-86
2023/07/13 00:20:24;;;;;;;3.60;1.40;;;19.00;90.40;;;;;;5037031;28;20393;-85
2023/07/13 00:23:06;;;;;;;;;;;;;;;;;;;;;
2023/07/13 00:25:32;;;;;;;4.45;1.75;;;18.90;90.40;;;;;;5055086;28;20041;-86
2023/07/13 00:28:00;;;;;;;4.97;1.50;;;18.90;90.50;;;;;;5055447;28;20436;-84
2023/07/13 00:30:26;;;;;;;3.65;1.40;;;18.90;90.60;;;;;;5042537;28;20045;-86
2023/07/13 00:32:52;;;;;;;5.80;1.52;;;18.90;90.60;;;;;;5062339;28;20052;-86
2023/07/13 00:35:17;;;;;;;5.68;1.52;;;18.80;90.60;;;;;;5036152;28;20029;-86
2023/07/13 00:37:43;;;;;;;4.53;1.50;;;18.80;90.60;;;;;;5060336;28;20021;-85
2023/07/13 00:40:12;;;;;;;6.80;1.70;;;18.80;90.70;;;;;;5061215;28;20040;-85
2023/07/13 00:42:38;;;;;;;6.45;1.48;;;18.80;90.70;;;;;;5061358;28;20024;-85
2023/07/13 00:45:04;;;;;;;6.82;1.63;;;18.80;90.80;;;;;;5058023;28;20017;-86
2023/07/13 00:47:29;;;;;;;4.28;1.50;;;18.80;90.70;;;;;;5050127;28;20068;-86
2023/07/13 00:49:58;;;;;;;4.15;1.52;;;18.80;90.70;;;;;;5037239;28;20028;-86
2023/07/13 00:52:24;;;;;;;2.97;1.67;;;18.80;90.70;;;;;;5054669;28;20506;-86
2023/07/13 00:54:50;;;;;;;2.35;1.42;;;18.80;90.70;;;;;;5036190;28;20021;-86
2023/07/13 00:57:19;;;;;;;5.22;1.70;;;18.80;90.70;;;;;;5019832;28;20056;-86
2023/07/13 00:59:53;;;;;;;5.30;1.40;;;18.70;90.70;;;;;;5036455;28;20376;-85
2023/07/13 01:02:21;;;;;;;4.25;1.38;;;18.70;90.70;;;;;;5036464;28;20021;-86
2023/07/13 01:04:47;;;;;;;4.38;1.40;;;18.70;90.70;;;;;;5035926;28;20072;-84
2023/07/13 01:07:14;;;;;;;3.42;1.40;;;18.70;90.70;;;;;;5035784;28;20025;-85
2023/07/13 01:09:40;;;;;;;5.00;1.90;;;18.70;90.70;;;;;;5019823;28;20029;-86
2023/07/13 01:12:06;;;;;;;4.30;1.38;;;18.70;90.80;;;;;;5019541;28;20021;-85
2023/07/13 01:14:32;;;;;;;4.00;1.30;;;18.70;90.80;;;;;;5035832;28;20029;-86
2023/07/13 01:17:00;;;;;;;5.93;1.50;;;18.60;90.80;;;;;;5019252;28;20036;-85
2023/07/13 01:19:44;;;;;;;4.30;1.70;;;18.60;90.90;;;;;;5035856;28;20029;-85
2023/07/13 01:22:15;;;;;;;3.88;1.35;;;18.60;91.00;;;;;;5035213;28;20053;-85
2023/07/13 01:24:43;;;;;;;4.10;1.40;;;18.60;90.90;;;;;;5035842;28;20457;-85
2023/07/13 01:27:11;;;;;;;4.53;1.73;;;18.60;90.90;;;;;;5018770;28;20040;-86
2023/07/13 01:29:47;;;;;;;4.45;1.60;;;18.60;91.00;;;;;;5053240;28;20045;-85
2023/07/13 01:32:23;;;;;;;3.45;1.30;;;18.60;91.00;;;;;;5020764;28;20049;-86
2023/07/13 01:34:56;;;;;;;2.97;1.50;;;18.60;91.00;;;;;;5053701;28;20021;-85
2023/07/13 01:37:24;;;;;;;5.30;1.58;;;18.60;91.00;;;;;;5035775;28;20044;-85
2023/07/13 01:39:51;;;;;;;4.93;1.58;;;18.60;91.00;;;;;;5053458;28;20021;-82
2023/07/13 01:42:17;;;;;;;4.75;1.50;;;18.60;91.00;;;;;;5019268;28;20083;-85
2023/07/13 01:44:43;;;;;;;3.50;1.48;;;18.60;91.00;;;;;;5056945;28;20072;-85
2023/07/13 01:47:09;;;;;;;4.70;1.70;;;18.60;91.00;;;;;;5057673;28;20039;-86
2023/07/13 01:49:35;;;;;;;6.75;2.05;;;18.60;91.10;;;;;;5039533;28;20375;-85
2023/07/13 01:52:00;;;;;;;4.45;1.70;;;18.50;91.00;;;;;;5039500;28;20103;-85
2023/07/13 01:54:26;;;;;;;6.57;1.92;;;18.50;91.00;;;;;;5039719;28;20029;-85
2023/07/13 01:56:52;;;;;;;3.40;2.00;;;18.50;91.10;;;;;;5057194;28;20029;-84
2023/07/13 01:59:17;;;;;;;5.65;1.77;;;18.50;91.10;;;;;;5039878;28;20018;-84
2023/07/13 02:01:43;;;;;;;7.85;2.28;;;18.40;91.10;;;;;;5039789;28;20430;-84
2023/07/13 02:04:09;;;;;;;6.82;1.80;;;18.40;91.10;;;;;;5057277;28;20067;-84
2023/07/13 02:06:34;;;;;;;3.78;1.55;;;18.40;91.10;;;;;;5039814;28;20464;-85
2023/07/13 02:09:00;;;;;;;4.90;2.08;;;18.40;91.20;;;;;;5022945;28;20036;-84
2023/07/13 02:11:32;;;;;;;6.13;2.15;;;18.40;91.20;;;;;;5057324;28;20045;-84
2023/07/13 02:14:02;;;;;;;9.07;2.30;;;18.40;91.20;;;;;;5024179;28;20063;-84
2023/07/13 02:16:28;;;;;;;5.45;2.25;;;18.40;91.30;;;;;;5057667;28;20037;-84
2023/07/13 02:18:55;;;;;;;4.47;1.90;;;18.30;91.30;;;;;;5023309;28;20133;-84
2023/07/13 02:21:21;;;;;;;4.50;1.60;;;18.30;91.40;;;;;;5023796;28;20078;-85
2023/07/13 02:23:47;;;;;;;6.18;2.05;;;18.30;91.40;;;;;;5060144;28;20025;-84
2023/07/13 02:26:13;;;;;;;5.25;2.15;;;18.30;91.40;;;;;;5033198;28;20072;-84
2023/07/13 02:28:38;;;;;;;4.20;1.90;;;18.30;91.50;;;;;;5075885;28;20328;-83
2023/07/13 02:31:14;;;;;;;5.55;2.05;;;18.30;91.50;;;;;;5063089;28;20013;-84
2023/07/13 02:33:39;;;;;;;8.10;2.45;;;18.30;91.50;;;;;;5079267;28;20031;-84
2023/07/13 02:36:05;;;;;;;6.22;1.85;;;18.30;91.50;;;;;;5078621;28;20045;-85
2023/07/13 02:38:36;;;;;;;7.07;2.28;;;18.20;91.50;;;;;;5048475;28;20028;-84
2023/07/13 02:41:06;;;;;;;5.80;1.95;;;18.30;91.60;;;;;;5040794;28;20021;-85
2023/07/13 02:43:31;;;;;;;4.23;1.80;;;18.20;91.60;;;;;;5038865;28;20032;-85
2023/07/13 02:46:03;;;;;;;5.57;2.17;;;18.20;91.60;;;;;;5022073;28;20121;-83
2023/07/13 02:48:30;;;;;;;6.82;2.70;;;18.20;91.70;;;;;;5056517;28;20020;-83
2023/07/13 02:50:55;;;;;;;9.57;2.13;;;18.10;91.70;;;;;;5022209;28;20435;-85
2023/07/13 02:53:21;;;;;;;7.10;2.47;;;18.10;91.80;;;;;;5038663;28;20025;-84
2023/07/13 02:55:47;;;;;;;5.60;1.92;;;18.00;91.80;;;;;;5021614;28;20420;-85
2023/07/13 02:58:16;;;;;;;4.68;1.88;;;18.00;91.90;;;;;;5021898;28;20021;-84
2023/07/13 03:00:43;;;;;;;8.43;2.03;;;18.00;91.90;;;;;;5039317;28;20512;-85
2023/07/13 03:03:10;;;;;;;5.70;1.95;;;18.00;92.00;;;;;;5038375;28;20111;-85
2023/07/13 03:05:37;;;;;;;4.63;1.80;;;18.00;92.00;;;;;;5038230;28;20388;-85
2023/07/13 03:08:03;;;;;;;6.25;2.10;;;18.00;92.10;;;;;;5038180;28;20531;-85
2023/07/13 03:10:32;;;;;;;5.70;2.40;;;18.00;92.10;;;;;;5021887;28;20120;-85
2023/07/13 03:12:58;;;;;;;5.55;2.38;;;18.00;92.10;;;;;;5055847;28;20538;-85
2023/07/13 03:15:24;;;;;;;5.70;2.13;;;17.90;92.20;;;;;;5037703;28;20037;-85
2023/07/13 03:17:49;;;;;;;5.32;2.25;;;18.00;92.30;;;;;;5055625;28;20029;-85
2023/07/13 03:20:15;;;;;;;6.57;2.20;;;17.90;92.30;;;;;;5037722;28;20082;-85
2023/07/13 03:22:41;;;;;;;5.97;2.38;;;18.00;92.30;;;;;;5037869;28;20399;-85
2023/07/13 03:25:07;;;;;;;6.88;2.75;;;17.90;92.30;;;;;;5037967;28;20033;-85
2023/07/13 03:27:33;;;;;;;4.57;2.20;;;17.90;92.40;;;;;;5037800;28;20013;-85
2023/07/13 03:29:59;;;;;;;4.45;2.38;;;17.90;92.40;;;;;;5020949;28;20400;-85
2023/07/13 03:32:24;;;;;;;5.88;2.33;;;17.90;92.50;;;;;;5020900;28;20115;-85
2023/07/13 03:34:53;;;;;;;7.55;2.28;;;17.80;92.50;;;;;;5037876;28;20025;-85
2023/07/13 03:37:18;;;;;;;9.82;2.85;;;17.80;92.50;;;;;;5020929;28;20115;-84
2023/07/13 03:39:44;;;;;;;5.93;2.60;;;17.90;92.60;;;;;;5037986;28;20495;-85
2023/07/13 03:42:10;;;;;;;6.78;2.50;;;17.80;92.60;;;;;;5055272;28;20415;-85
2023/07/13 03:44:36;;;;;;;8.07;2.45;;;17.80;92.70;;;;;;5055297;28;20025;-85
2023/07/13 03:47:01;;;;;;;5.03;2.42;;;17.80;92.70;;;;;;5037510;28;20122;-85
2023/07/13 03:49:27;;;;;;;6.68;2.50;;;17.80;92.80;;;;;;5020651;28;20460;-85
2023/07/13 03:51:53;;;;;;;5.35;2.33;;;17.80;92.70;;;;;;5020983;28;20124;-85
2023/07/13 03:54:18;;;;;;;7.10;2.70;;;17.80;92.80;;;;;;5037689;28;20033;-85
2023/07/13 03:56:44;;;;;;;5.88;2.75;;;17.80;92.80;;;;;;5020848;28;20119;-85
2023/07/13 03:59:10;;;;;;;7.93;2.78;;;17.80;92.90;;;;;;5020934;28;20029;-84
2023/07/13 04:01:35;;;;;;;6.95;2.90;;;17.70;92.90;;;;;;5020785;28;20025;-85
2023/07/13 04:04:01;;;;;;;7.43;2.92;;;17.70;93.30;;;;;;5020994;28;20021;-84
2023/07/13 04:06:29;;;;;;;5.47;2.90;;;17.70;93.10;;;;;;5019463;28;20037;-85
2023/07/13 04:08:57;;;;;;;8.10;2.72;;;17.70;93.10;;;;;;5037350;28;20049;-85
2023/07/13 04:11:25;;;;;;;6.88;2.97;;;17.70;93.20;;;;;;5037560;28;20465;-84
2023/07/13 04:13:51;;;;;;;6.60;2.70;;;17.70;93.20;;;;;;5055785;28;20112;-85
2023/07/13 04:16:18;;;;;;;7.10;2.92;;;17.70;93.30;;;;;;5021552;28;20039;-85
2023/07/13 04:18:45;;;;;;;6.95;3.30;;;17.70;93.40;;;;;;5062984;28;20076;-85
2023/07/13 04:21:11;;;;;;;7.18;3.05;;;17.70;93.40;;;;;;5061071;28;20028;-84
2023/07/13 04:23:38;;;;;;;6.18;2.65;;;17.70;93.50;;;;;;5062025;28;20055;-85
2023/07/13 04:26:32;;;;;;;;;;;;;;;;;;;;;
2023/07/13 04:28:58;;;;;;;8.15;3.38;;;17.70;93.60;;;;;;5075660;28;20079;-85
2023/07/13 04:31:23;;;;;;;8.38;2.92;;;17.70;93.60;;;;;;5026398;28;20036;-85
2023/07/13 04:33:50;;;;;;;9.77;3.60;;;17.70;93.60;;;;;;5037364;28;20044;-85
2023/07/13 04:36:39;;;;;;;9.60;3.05;;;17.70;93.60;;;;;;5036864;28;20123;-85
2023/07/13 04:39:04;;;;;;;7.72;3.10;;;17.70;93.70;;;;;;5036840;28;20024;-85
2023/07/13 04:41:30;;;;;;;8.32;3.30;;;17.70;93.70;;;;;;5036563;28;20029;-85
2023/07/13 04:43:56;;;;;;;6.88;3.08;;;17.70;93.70;;;;;;5020222;28;20025;-85
2023/07/13 04:46:21;;;;;;;9.35;3.60;;;17.70;93.70;;;;;;5019172;28;20384;-86
2023/07/13 04:48:50;;;;;;;8.50;3.20;;;17.70;93.80;;;;;;5036436;28;20468;-86
2023/07/13 04:51:16;;;;;;;8.50;3.38;;;17.80;93.80;;;;;;5054219;28;20398;-85
2023/07/13 04:53:43;;;;;;;8.82;3.25;;;17.70;93.80;;;;;;5035989;28;20032;-86
2023/07/13 04:56:08;;;;;;;9.30;3.40;;;17.70;93.90;;;;;;5019503;28;20037;-86
2023/07/13 04:58:36;;;;;;;11.07;3.28;;;17.70;93.90;;;;;;5036108;28;20384;-86
2023/07/13 05:01:04;;;;;;;9.98;3.50;;;17.70;94.00;;;;;;5036114;28;20457;-85
2023/07/13 05:03:30;;;;;;;10.55;3.47;;;17.70;94.00;;;;;;5036081;28;20048;-86
2023/07/13 05:06:01;;;;;;;9.75;3.45;;;17.70;94.10;;;;;;5035890;28;20472;-85
2023/07/13 05:08:26;;;;;;;;;;;17.80;94.20;;;;;;5036302;28;20542;-85
2023/07/13 05:10:52;;;;;;;10.30;3.58;;;17.80;94.20;;;;;;5035947;28;19909;-85
2023/07/13 05:13:18;;;;;;;8.95;3.83;;;17.80;94.20;;;;;;5036270;28;20033;-85
2023/07/13 05:15:44;;;;;;;9.45;3.92;;;17.90;94.20;;;;;;5035982;28;20522;-84
2023/07/13 05:18:09;;;;;;;8.88;3.58;;;17.90;94.30;;;;;;5052790;28;20460;-85
2023/07/13 05:20:35;;;;;;;9.55;3.97;;;17.90;94.30;;;;;;5035352;28;20477;-85
2023/07/13 05:23:01;;;;;;;8.70;3.88;;;18.00;94.30;;;;;;5035561;28;20025;-85
2023/07/13 05:25:26;;;;;;;9.18;3.88;;;18.00;94.30;;;;;;5035144;28;20067;-85
2023/07/13 05:27:52;;;;;;;11.32;3.70;;;18.10;94.40;;;;;;5035687;28;20465;-84
2023/07/13 05:30:17;;;;;;;7.53;3.55;;;18.10;94.40;;;;;;5035440;28;20079;-85
2023/07/13 05:32:43;;;;;;;8.40;3.67;;;18.10;94.40;;;;;;5019039;28;20381;-84
2023/07/13 05:35:09;;;;;;;14.27;3.60;;;18.20;94.40;;;;;;5035306;28;20032;-84
2023/07/13 05:37:35;;;;;;;8.98;3.90;;;18.20;94.40;;;;;;5035966;28;20056;-85
2023/07/13 05:40:00;;;;;;;8.00;3.75;;;18.30;94.30;;;;;;5035576;28;20038;-85
2023/07/13 05:42:26;;;;;;;9.88;3.60;;;18.30;94.30;;;;;;5035770;28;20021;-84
2023/07/13 05:44:52;;;;;;;8.07;3.90;;;18.30;94.40;;;;;;5035550;28;20433;-84
2023/07/13 05:47:18;;;;;;;10.13;4.18;;;18.40;94.40;;;;;;5019264;28;20067;-84
2023/07/13 05:49:43;;;;;;;8.95;3.90;;;18.40;94.40;;;;;;5035953;28;20407;-84
2023/07/13 05:52:09;;;;;;;7.75;4.25;;;18.40;94.40;;;;;;5019202;28;20380;-84
2023/07/13 05:54:35;;;;;;;9.35;4.25;;;18.40;94.40;;;;;;5035829;28;20040;-84
2023/07/13 05:57:01;;;;;;;11.35;5.00;;;18.50;94.40;;;;;;5054545;28;20025;-84
2023/07/13 05:59:27;;;;;;;9.93;5.20;;;18.50;94.50;;;;;;5035627;28;20476;-84
2023/07/13 06:01:52;;;;;;;12.45;5.57;;;18.50;94.40;;;;;;5035927;28;20029;-85
2023/07/13 06:04:19;;;;;;;10.60;5.40;;;18.50;94.50;;;;;;5062248;28;20055;-85
2023/07/13 06:06:45;;;;;;;9.57;5.03;;;18.60;94.60;;;;;;5042328;28;20067;-85
2023/07/13 06:09:11;;;;;;;17.63;5.88;;;18.60;94.60;;;;;;5036598;28;20029;-85
2023/07/13 06:11:37;;;;;;;12.35;5.75;;;18.70;94.60;;;;;;5060074;28;20040;-83
2023/07/13 06:14:03;;;;;;;15.88;6.05;;;18.70;94.60;;;;;;5043516;28;20017;-83
2023/07/13 06:16:29;;;;;;;12.65;6.07;;;18.70;94.60;;;;;;5060086;28;20060;-84
2023/07/13 06:18:55;;;;;;;12.15;6.25;;;18.70;94.70;;;;;;5060024;28;20037;-84
2023/07/13 06:21:22;;;;;;;13.45;6.70;;;18.80;94.90;;;;;;5047646;28;20021;-84
2023/07/13 06:23:52;;;;;;;12.35;5.97;;;18.90;94.70;;;;;;5036098;28;20029;-84
2023/07/13 06:26:20;;;;;;;14.30;6.70;;;19.00;94.70;;;;;;5019170;28;20488;-84
2023/07/13 06:28:49;;;;;;;14.63;7.53;;;19.10;94.70;;;;;;5052958;28;20092;-85
2023/07/13 06:31:15;;;;;;;12.18;6.65;;;19.10;94.70;;;;;;5039009;28;20028;-84
2023/07/13 06:33:43;;;;;;;12.13;6.45;;;19.20;94.70;;;;;;5022092;28;20037;-84
2023/07/13 06:36:10;;;;;;;14.05;6.35;;;19.20;94.70;;;;;;5022024;28;20404;-84
2023/07/13 06:38:36;;;;;;;14.93;7.13;;;19.30;94.60;;;;;;5056715;28;20036;-85
2023/07/13 06:41:01;;;;;;;11.88;6.10;;;19.30;94.60;;;;;;5056414;28;20025;-85
2023/07/13 06:43:28;;;;;;;15.82;6.95;;;19.40;94.60;;;;;;5021891;28;20123;-85
2023/07/13 06:45:55;;;;;;;11.70;7.00;;;19.40;94.60;;;;;;5038967;28;20036;-84
2023/07/13 06:48:21;;;;;;;13.65;6.68;;;19.50;94.60;;;;;;5038571;28;20112;-85
2023/07/13 06:50:49;;;;;;;13.05;7.15;;;19.60;94.60;;;;;;5038346;28;20128;-85
2023/07/13 06:53:15;;;;;;;12.10;7.03;;;19.60;94.60;;;;;;5022296;28;20025;-85
2023/07/13 06:55:43;;;;;;;13.25;7.13;;;19.60;94.60;;;;;;5021940;28;20464;-84
2023/07/13 06:58:09;;;;;;;16.13;7.30;;;19.70;94.60;;;;;;5038536;28;20032;-85
2023/07/13 07:00:34;;;;;;;14.73;8.20;;;19.70;94.60;;;;;;5056344;28;20025;-84
2023/07/13 07:03:00;;;;;;;15.45;7.95;;;19.70;94.60;;;;;;5022025;28;20499;-85
2023/07/13 07:05:29;;;;;;;15.50;7.50;;;19.80;94.60;;;;;;5037967;28;20021;-85
2023/07/13 07:07:55;;;;;;;13.38;7.90;;;19.80;94.50;;;;;;5038446;28;20526;-84
2023/07/13 07:10:21;;;;;;;11.73;7.35;;;19.80;94.50;;;;;;5038030;28;20078;-84
2023/07/13 07:12:47;;;;;;;14.40;7.15;;;19.80;94.50;;;;;;5038256;28;20029;-84
2023/07/13 07:15:13;;;;;;;17.27;8.05;;;19.90;94.50;;;;;;5021368;28;20025;-85
2023/07/13 07:17:41;;;;;;;10.80;6.93;;;19.90;94.40;;;;;;5056062;28;20029;-85
2023/07/13 07:20:07;;;;;;;12.10;7.13;;;20.00;94.50;;;;;;5038106;28;20037;-85
2023/07/13 07:22:33;;;;;;;11.13;6.53;;;20.00;94.50;;;;;;5037805;28;20378;-84
2023/07/13 07:24:59;;;;;;;13.52;7.55;;;20.10;94.50;;;;;;5038010;28;20091;-85
2023/07/13 07:27:25;;;;;;;19.05;7.22;;;20.20;94.50;;;;;;5037954;28;20057;-85
2023/07/13 07:29:51;;;;;;;12.57;7.18;;;20.30;94.50;;;;;;5020900;28;20140;-85
2023/07/13 07:32:17;;;;;;;17.77;7.45;;;20.30;94.40;;;;;;5021245;28;20112;-84
2023/07/13 07:34:42;;;;;;;11.85;7.05;;;20.40;94.40;;;;;;5037630;28;20056;-85
2023/07/13 07:37:12;;;;;;;11.95;6.78;;;20.50;94.40;;;;;;5021074;28;20037;-85
2023/07/13 07:39:37;;;;;;;13.98;7.60;;;20.50;94.30;;;;;;5055209;28;20029;-84
2023/07/13 07:42:03;;;;;;;11.68;6.90;;;20.50;94.20;;;;;;5021141;28;20025;-85
2023/07/13 07:44:34;;;;;;;12.52;7.30;;;20.60;94.20;;;;;;5037505;28;20029;-85
2023/07/13 07:46:59;;;;;;;11.38;7.25;;;20.60;94.10;;;;;;5055569;28;20025;-85
2023/07/13 07:49:25;;;;;;;11.25;7.53;;;20.60;94.00;;;;;;5037309;28;20040;-85
2023/07/13 07:51:59;;;;;;;13.95;7.22;;;20.70;94.10;;;;;;5020867;28;20028;-85
2023/07/13 07:54:24;;;;;;;12.30;7.72;;;20.70;94.00;;;;;;5037598;28;20025;-85
2023/07/13 07:56:52;;;;;;;12.60;7.18;;;20.70;94.00;;;;;;5021018;28;20078;-85
2023/07/13 07:59:19;;;;;;;14.05;7.30;;;20.70;94.00;;;;;;5022773;28;20048;-85
2023/07/13 08:01:46;;;;;;;10.20;6.68;;;20.80;94.00;;;;;;5022036;28;20053;-84
2023/07/13 08:04:12;;;;;;;12.57;7.32;;;20.80;94.00;;;;;;5030293;28;20021;-85
2023/07/13 08:06:37;;;;;;;16.75;8.02;;;20.90;94.00;;;;;;5061154;28;20036;-84
2023/07/13 08:09:04;;;;;;;11.52;6.70;;;20.90;93.80;;;;;;5079253;28;20063;-85
2023/07/13 08:11:30;;;;;;;13.82;7.90;;;21.00;93.80;;;;;;5078937;28;20025;-85
2023/07/13 08:13:56;;;;;;;10.15;6.65;;;21.00;93.70;;;;;;5061473;28;20052;-85
2023/07/13 08:16:22;;;;;;;14.50;7.53;;;21.00;93.70;;;;;;5053659;28;20036;-85
2023/07/13 08:18:48;;;;;;;15.52;7.90;;;21.10;93.70;;;;;;5037618;28;20014;-85
2023/07/13 08:21:14;;;;;;;11.88;7.50;;;21.20;93.60;;;;;;5037452;28;20453;-85
2023/07/13 08:23:40;;;;;;;12.68;7.63;;;21.20;93.60;;;;;;5037239;28;20040;-84
2023/07/13 08:26:06;;;;;;;9.73;7.10;;;21.20;93.60;;;;;;5036927;28;20119;-85
2023/07/13 08:28:33;;;;;;;11.52;7.70;;;21.30;93.40;;;;;;5036528;28;20567;-84
2023/07/13 08:31:04;;;;;;;13.88;7.82;;;21.30;93.30;;;;;;5054167;28;20025;-85
2023/07/13 08:33:30;;;;;;;12.02;7.00;;;21.30;93.30;;;;;;5054616;28;20029;-85
2023/07/13 08:35:56;;;;;;;13.70;7.10;;;21.40;93.30;;;;;;5019900;28;20039;-85
2023/07/13 08:38:22;;;;;;;16.02;7.30;;;21.40;93.00;;;;;;5036525;28;20491;-85
2023/07/13 08:40:53;;;;;;;9.98;6.18;;;21.40;93.00;;;;;;5036546;28;20079;-85
2023/07/13 08:43:24;;;;;;;11.75;6.85;;;21.40;93.00;;;;;;5054176;28;20116;-84
2023/07/13 08:45:56;;;;;;;15.40;6.65;;;21.50;93.20;;;;;;5054118;28;20063;-84
2023/07/13 08:48:34;;;;;;;9.00;6.25;;;21.60;93.10;;;;;;5036206;28;20067;-85
2023/07/13 08:51:18;;;;;;;10.43;5.97;;;21.70;93.20;;;;;;5036149;28;20483;-85
2023/07/13 08:53:48;;;;;;;7.88;5.82;;;21.90;93.10;;;;;;5035475;28;20029;-84
2023/07/13 08:56:21;;;;;;;8.23;5.47;;;22.00;93.00;;;;;;5035614;28;20035;-84
2023/07/13 08:58:54;;;;;;;8.55;6.22;;;22.10;92.90;;;;;;5053737;28;20021;-84
2023/07/13 09:01:32;;;;;;;10.68;6.05;;;22.10;92.80;;;;;;5053845;28;20021;-85
2023/07/13 09:04:15;;;;;;;10.48;6.30;;;22.10;92.40;;;;;;5035694;28;20029;-84
2023/07/13 09:06:51;;;;;;;12.30;6.03;;;22.00;92.20;;;;;;5053734;28;20104;-84
2023/07/13 09:09:37;;;;;;;9.05;5.60;;;21.90;92.10;;;;;;5035940;28;20551;-84
2023/07/13 09:12:35;;;;;;;11.73;6.18;;;21.90;92.00;;;;;;5035689;28;20102;-85
2023/07/13 09:15:04;;;;;;;11.05;6.20;;;21.90;91.80;;;;;;5005237;28;20040;-84
2023/07/13 09:17:44;;;;;;;9.52;6.00;;;21.80;91.80;;;;;;5053287;28;20115;-84
2023/07/13 09:20:35;;;;;;;9.20;5.47;;;21.80;91.50;;;;;;5035856;28;20029;-85
2023/07/13 09:23:04;;;;;;;7.13;4.88;;;21.90;91.50;;;;;;5053521;28;20103;-85
2023/07/13 09:25:33;;;;;;;7.15;4.70;;;21.90;91.50;;;;;;5019331;28;20025;-85
2023/07/13 09:28:22;;;;;;;7.18;4.47;;;22.00;91.40;;;;;;5053313;28;20078;-85
2023/07/13 09:31:09;;;;;;;7.32;4.47;;;22.00;91.30;;;;;;5035710;28;20044;-85
2023/07/13 09:33:35;;;;;;;6.85;4.28;;;22.10;91.30;;;;;;5035654;28;20067;-85
2023/07/13 09:36:18;;;;;;;7.40;4.30;;;22.10;91.20;;;;;;5035361;28;20451;-85
2023/07/13 09:38:45;;;;;;;9.02;4.60;;;22.10;91.10;;;;;;5053215;28;20029;-84
2023/07/13 09:41:23;;;;;;;7.82;4.40;;;22.10;91.10;;;;;;5019128;28;20376;-85
2023/07/13 09:44:02;;;;;;;7.38;4.53;;;22.00;91.20;;;;;;5035574;28;20017;-84
2023/07/13 09:46:28;;;;;;;7.70;4.55;;;21.90;91.40;;;;;;5053210;28;20047;-84
2023/07/13 09:48:56;;;;;;;7.70;4.30;;;21.90;91.70;;;;;;5035648;28;20115;-85
2023/07/13 09:51:21;;;;;;;7.07;4.32;;;21.80;92.00;;;;;;5018816;28;20125;-85
2023/07/13 09:53:47;;;;;;;7.40;4.63;;;21.80;92.30;;;;;;5035700;28;20108;-84
2023/07/13 09:56:28;;;;;;;6.63;4.20;;;21.80;92.40;;;;;;5037246;28;20061;-84
2023/07/13 09:58:53;;;;;;;8.10;4.22;;;21.80;92.60;;;;;;5040169;28;20151;-85
2023/07/13 10:01:52;;;;;;;8.00;4.40;;;21.70;92.60;;;;;;5060358;28;20036;-84
2023/07/13 10:04:19;;;;;;;5.22;4.07;;;21.70;92.70;;;;;;5022801;28;20036;-85
2023/07/13 10:06:48;;;;;;;8.57;4.47;;;21.70;92.80;;;;;;5063998;28;20038;-84
2023/07/13 10:09:16;;;;;;;9.93;5.65;;;21.70;93.00;;;;;;5081614;28;20048;-85
2023/07/13 10:11:44;;;;;;;7.82;4.60;;;21.70;93.00;;;;;;5047582;28;20021;-85
2023/07/13 10:14:17;;;;;;;8.93;4.72;;;21.70;93.10;;;;;;5054067;28;20120;-85
2023/07/13 10:16:45;;;;;;;7.57;4.47;;;21.70;93.20;;;;;;5057897;28;20025;-85
2023/07/13 10:19:10;;;;;;;7.93;4.25;;;21.80;93.30;;;;;;5039547;28;20032;-85
2023/07/13 10:22:01;;;;;;;8.13;4.18;;;21.80;93.20;;;;;;5057264;28;20025;-86
2023/07/13 10:24:33;;;;;;;7.25;4.10;;;21.90;93.10;;;;;;5057237;28;20096;-85
2023/07/13 10:27:10;;;;;;;4.88;3.75;;;21.90;93.00;;;;;;5038932;28;20021;-85
2023/07/13 10:29:40;;;;;;;8.32;3.95;;;22.00;92.90;;;;;;5056760;28;20075;-85
2023/07/13 10:32:11;;;;;;;7.18;3.38;;;22.00;92.90;;;;;;5038710;28;20488;-85
2023/07/13 10:34:37;;;;;;;11.25;4.00;;;22.10;92.80;;;;;;5022371;28;20036;-86
2023/07/13 10:37:06;;;;;;;7.88;3.70;;;22.20;92.50;;;;;;5022102;28;20432;-85
2023/07/13 10:39:33;;;;;;;7.00;3.75;;;22.20;92.40;;;;;;5022114;28;20426;-85
2023/07/13 10:42:09;;;;;;;10.43;4.25;;;22.30;92.30;;;;;;5056932;28;20403;-85
2023/07/13 10:44:35;;;;;;;8.48;4.10;;;22.40;92.30;;;;;;5056518;28;20056;-85
2023/07/13 10:47:06;;;;;;;8.60;4.20;;;22.40;92.20;;;;;;5056434;28;20062;-86
2023/07/13 10:49:33;;;;;;;8.90;4.30;;;22.40;92.20;;;;;;5038731;28;20017;-86
2023/07/13 10:51:59;;;;;;;10.10;4.05;;;22.30;92.40;;;;;;5038167;28;20025;-86
2023/07/13 10:54:37;;;;;;;6.03;3.20;;;22.20;92.70;;;;;;5021957;28;20074;-86
2023/07/13 10:57:21;;;;;;;7.38;3.40;;;22.10;93.00;;;;;;5038802;28;20115;-86
2023/07/13 11:00:17;;;;;;;6.60;3.55;;;22.00;93.40;;;;;;5038492;28;20032;-86
2023/07/13 11:02:56;;;;;;;6.03;2.72;;;22.00;93.70;;;;;;5013107;28;20037;-87
2023/07/13 11:05:24;;;;;;;6.90;3.20;;;21.90;93.90;;;;;;5055991;28;20014;-86
2023/07/13 11:08:02;;;;;;;9.70;3.38;;;21.90;94.00;;;;;;5055690;28;20036;-86
2023/07/13 11:10:47;;;;;;;6.40;2.90;;;22.00;94.20;;;;;;5038097;28;20033;-86
2023/07/13 11:13:45;;;;;;;5.32;2.88;;;22.00;94.40;;;;;;5037697;28;20025;-86
2023/07/13 11:16:43;;;;;;;5.38;2.78;;;22.00;94.30;;;;;;5055252;28;20024;-86
2023/07/13 11:19:27;;;;;;;6.38;2.78;;;22.00;94.00;;;;;;5037924;28;20029;-86
2023/07/13 11:22:05;;;;;;;7.22;2.67;;;22.00;94.20;;;;;;5037795;28;20021;-86
2023/07/13 11:24:54;;;;;;;6.75;2.70;;;22.00;94.10;;;;;;5037381;28;20029;-86
2023/07/13 11:27:36;;;;;;;4.65;2.30;;;22.00;93.70;;;;;;5037656;28;20072;-86
2023/07/13 11:30:29;;;;;;;6.57;2.80;;;21.90;93.60;;;;;;5055095;28;20073;-86
2023/07/13 11:33:27;;;;;;;5.00;2.35;;;21.90;93.60;;;;;;5037929;28;20025;-86
2023/07/13 11:36:13;;;;;;;5.03;2.53;;;22.00;93.60;;;;;;5037793;28;20078;-85
2023/07/13 11:38:48;;;;;;;6.05;2.63;;;22.00;93.50;;;;;;5055556;28;20495;-84
2023/07/13 11:41:18;;;;;;;4.18;2.33;;;22.00;93.50;;;;;;5037370;28;20029;-84
2023/07/13 11:43:45;;;;;;;5.15;2.33;;;22.00;93.30;;;;;;5037575;28;20052;-85
2023/07/13 11:46:26;;;;;;;6.07;2.40;;;22.00;93.30;;;;;;5037187;28;20029;-84
2023/07/13 11:48:53;;;;;;;6.43;2.83;;;22.00;93.30;;;;;;5037755;28;20349;-84
2023/07/13 11:51:34;;;;;;;4.78;2.25;;;22.10;93.40;;;;;;5020975;28;20060;-84
2023/07/13 11:54:05;;;;;;;4.25;2.55;;;22.20;93.20;;;;;;5056483;28;20029;-84
2023/07/13 11:56:33;;;;;;;6.20;2.67;;;22.30;93.10;;;;;;5039475;28;20052;-84
2023/07/13 11:59:05;;;;;;;5.15;2.50;;;22.40;93.00;;;;;;5021801;28;20067;-85
2023/07/13 12:01:32;;;;;;;3.72;2.58;;;22.40;92.90;;;;;;5046908;28;20005;-84
2023/07/13 12:04:02;;;;;;;4.65;2.45;;;22.40;92.80;;;;;;5062245;28;20084;-85
2023/07/13 12:06:35;;;;;;;4.85;2.47;;;22.40;92.70;;;;;;5061876;28;20048;-84
2023/07/13 12:09:12;;;;;;;5.10;2.50;;;22.40;92.70;;;;;;5079395;28;20013;-83
2023/07/13 12:11:40;;;;;;;5.57;2.97;;;22.30;92.80;;;;;;5061715;28;20067;-84
2023/07/13 12:14:11;;;;;;;5.57;2.78;;;22.20;93.20;;;;;;5052846;28;20025;-85
2023/07/13 12:16:37;;;;;;;3.30;2.33;;;22.20;93.50;;;;;;5055981;28;20128;-85
2023/07/13 12:19:03;;;;;;;6.82;2.70;;;22.20;93.80;;;;;;5037228;28;20112;-85
2023/07/13 12:21:34;;;;;;;4.72;2.40;;;22.10;93.90;;;;;;5021036;28;20063;-85
2023/07/13 12:24:03;;;;;;;4.97;2.90;;;22.20;94.00;;;;;;5036943;28;20032;-85
2023/07/13 12:26:30;;;;;;;5.38;2.50;;;22.20;94.20;;;;;;5036289;28;20480;-85
2023/07/13 12:29:00;;;;;;;8.60;3.00;;;22.20;94.40;;;;;;5036129;28;20021;-84
2023/07/13 12:31:30;;;;;;;4.80;2.38;;;22.30;94.50;;;;;;5036445;28;20115;-85
2023/07/13 12:34:07;;;;;;;6.03;2.45;;;22.30;94.50;;;;;;5036985;28;20021;-86
2023/07/13 12:36:38;;;;;;;4.45;2.15;;;22.30;94.40;;;;;;5054444;28;20373;-86
2023/07/13 12:39:16;;;;;;;3.65;2.60;;;22.40;94.40;;;;;;5053880;28;20028;-84
2023/07/13 12:41:44;;;;;;;4.75;2.58;;;22.40;94.40;;;;;;5036815;28;20082;-85
2023/07/13 12:44:12;;;;;;;4.28;3.10;;;22.50;94.30;;;;;;5037192;28;20024;-85
2023/07/13 12:46:39;;;;;;;3.65;2.65;;;22.60;94.30;;;;;;5019988;28;20037;-85
2023/07/13 12:49:07;;;;;;;4.72;2.47;;;22.60;94.20;;;;;;5036559;28;20033;-85
2023/07/13 12:51:33;;;;;;;3.78;2.45;;;22.60;93.90;;;;;;5036189;28;20029;-85
2023/07/13 12:54:19;;;;;;;4.10;2.15;;;22.70;93.70;;;;;;5019660;28;20098;-85
2023/07/13 12:56:48;;;;;;;4.53;2.50;;;22.70;93.40;;;;;;5053910;28;20105;-84